Time;durP1;ratioP1;P1;durP2;ratioP2;P2;SDS_P1;SDS_P2;PMS_P1;PMS_P2;Temp;Humidity;BMP_temperature;BMP_pressure;BME280_temperature;BME280_humidity;BME280_pressure;Samples;Min_cycle;Max_cycle;Signal;HPM_P1;HPM_P2
2023/02/28 00:00:10;;;;;;;;;;;20.90;75.30;;;;;;1801900;79;20240;-85
2023/02/28 00:02:41;;;;;;;;;;;20.90;75.30;;;;;;1796806;79;20176;-85
2023/02/28 00:09:02;;;;;;;;;;;20.90;75.70;;;;;;1800505;79;20240;-85
2023/02/28 00:11:32;;;;;;;;;;;20.90;75.30;;;;;;1793956;79;20279;-85
2023/02/28 00:14:02;;;;;;;;;;;20.90;75.50;;;;;;1800438;79;20213;-85
2023/02/28 00:16:33;;;;;;;;;;;20.90;75.00;;;;;;1800534;79;20212;-85
2023/02/28 00:19:04;;;;;;;;;;;20.90;75.70;;;;;;1797259;79;20531;-85
2023/02/28 00:21:35;;;;;;;;;;;21.00;76.00;;;;;;1786338;79;20206;-85
2023/02/28 00:24:08;;;;;;;;;;;21.00;76.20;;;;;;1782877;79;20438;-85
2023/02/28 00:26:41;;;;;;;;;;;21.00;74.80;;;;;;1786229;79;20216;-85
2023/02/28 00:29:13;;;;;;;;;;;21.10;75.60;;;;;;1792431;79;20242;-85
2023/02/28 00:31:42;;;;;;;;;;;21.10;74.60;;;;;;1808060;78;20223;-84
2023/02/28 00:34:12;;;;;;;;;;;21.20;75.50;;;;;;1803397;78;20219;-85
2023/02/28 00:36:45;;;;;;;;;;;21.30;75.60;;;;;;1804062;78;20293;-87
2023/02/28 00:39:16;;;;;;;;;;;21.40;75.80;;;;;;1805831;78;20522;-86
2023/02/28 00:41:44;;;;;;;;;;;;;;;;;;1816966;78;20678;-72
2023/02/28 00:44:16;;;;;;;;;;;;;;;;;;1803028;78;20211;-72
2023/02/28 00:46:45;;;;;;;;;;;;;;;;;;1775041;80;20634;-72
2023/02/28 00:49:15;;;;;;;;;;;;;;;;;;1795211;79;20332;-72
2023/02/28 00:51:45;;;;;;;;;;;;;;;;;;1793313;79;20565;-72
2023/02/28 00:54:20;;;;;;;;;;;;;;;;;;1792033;79;20208;-72
2023/02/28 00:56:49;;;;;;;;;;;;;;;;;;1798500;79;20169;-73
2023/02/28 00:59:19;;;;;;;;;;;;;;;;;;1799579;79;20728;-73
2023/02/28 01:01:48;;;;;;;;;;;;;;;;;;1791929;78;20526;-73
2023/02/28 01:04:18;;;;;;;;;;;;;;;;;;1770395;79;20188;-71
2023/02/28 01:06:47;;;;;;;;;;;;;;;;;;1784256;79;20613;-71
2023/02/28 01:09:16;;;;;;;;;;;;;;;;;;1780551;79;20182;-72
2023/02/28 01:11:45;;;;;;;;;;;;;;;;;;1819997;78;20465;-71
2023/02/28 01:14:15;;;;;;;;;;;;;;;;;;1784683;80;20218;-70
2023/02/28 01:16:44;;;;;;;;;;;;;;;;;;1766781;80;20581;-72
2023/02/28 01:19:14;;;;;;;;;;;;;;;;;;1763518;80;20319;-72
2023/02/28 01:21:43;;;;;;;;;;;;;;;;;;1755665;80;20189;-72
2023/02/28 01:24:17;;;;;;;;;;;;;;;;;;1771186;80;20218;-71
2023/02/28 01:26:44;;;;;;;;;;;;;;;;;;1760949;80;20193;-71
2023/02/28 01:29:14;;;;;;;;;;;;;;;;;;1748509;80;20494;-72
2023/02/28 01:31:44;;;;;;;;;;;;;;;;;;1760484;80;20172;-73
2023/02/28 01:34:13;;;;;;;;;;;;;;;;;;1768631;80;20318;-71
2023/02/28 01:36:43;;;;;;;;;;;;;;;;;;1767519;80;20243;-72
2023/02/28 01:39:12;;;;;;;;;;;;;;;;;;1756222;80;20661;-72
2023/02/28 01:41:42;;;;;;;;;;;;;;;;;;1759525;80;20227;-71
2023/02/28 01:44:12;;;;;;;;;;;;;;;;;;1744002;81;20629;-72
2023/02/28 01:46:42;;;;;;;;;;;;;;;;;;1765232;80;20287;-72
2023/02/28 01:49:14;;;;;;;;;;;;;;;;;;1768963;80;20174;-72
2023/02/28 01:51:45;;;;;;;;;;;;;;;;;;1760991;80;20508;-72
2023/02/28 01:54:13;;;;;;;;;;;;;;;;;;1762789;80;20198;-72
2023/02/28 01:56:47;;;;;;;;;;;;;;;;;;1738436;81;20550;-72
2023/02/28 01:59:13;;;;;;;;;;;;;;;;;;1753721;80;20487;-72
2023/02/28 02:01:42;;;;;;;;;;;;;;;;;;1752066;80;20563;-72
2023/02/28 02:04:12;;;;;;;;;;;;;;;;;;1751137;80;20452;-72
2023/02/28 02:06:41;;;;;;;;;;;;;;;;;;1763374;80;20672;-72
2023/02/28 02:09:10;;;;;;;;;;;;;;;;;;1756146;80;20204;-72
2023/02/28 02:11:40;;;;;;;;;;;;;;;;;;1762384;80;20503;-72
2023/02/28 02:14:27;;;;;;;;;;;;;;;;;;1765463;79;20332;-73
2023/02/28 02:17:15;;;;;;;;;;;;;;;;;;1764296;79;20551;-72
2023/02/28 02:19:44;;;;;;;;;;;;;;;;;;1763617;79;20538;-71
2023/02/28 02:22:17;;;;;;;;;;;;;;;;;;1746312;81;20472;-73
2023/02/28 02:24:47;;;;;;;;;;;;;;;;;;1750009;80;20229;-72
2023/02/28 02:27:17;;;;;;;;;;;;;;;;;;1745146;80;20212;-72
2023/02/28 02:29:46;;;;;;;;;;;;;;;;;;1740179;82;20598;-73
2023/02/28 02:32:16;;;;;;;;;;;;;;;;;;1709227;82;20200;-73
2023/02/28 02:34:48;;;;;;;;;;;;;;;;;;1723973;81;20208;-73
2023/02/28 02:37:21;;;;;;;;;;;;;;;;;;1697946;82;20284;-73
2023/02/28 02:39:48;;;;;;;;;;;;;;;;;;1726638;81;20460;-72
2023/02/28 02:42:18;;;;;;;;;;;;;;;;;;1729279;81;20902;-72
2023/02/28 02:44:47;;;;;;;;;;;;;;;;;;1748900;80;20742;-70
2023/02/28 02:47:17;;;;;;;;;;;;;;;;;;1746841;80;20180;-72
2023/02/28 02:49:46;;;;;;;;;;;;;;;;;;1743450;80;20219;-72
2023/02/28 02:52:16;;;;;;;;;;;;;;;;;;1731540;81;20191;-72
2023/02/28 02:54:45;;;;;;;;;;;;;;;;;;1706111;82;20496;-72
2023/02/28 02:57:15;;;;;;;;;;;;;;;;;;1747868;80;20187;-72
2023/02/28 02:59:44;;;;;;;;;;;;;;;;;;1745709;80;20182;-73
2023/02/28 03:02:13;;;;;;;;;;;;;;;;;;1743000;80;20195;-74
2023/02/28 03:04:43;;;;;;;;;;;;;;;;;;1729995;81;20262;-73
2023/02/28 03:07:13;;;;;;;;;;;;;;;;;;1735317;81;20144;-74
2023/02/28 03:09:43;;;;;;;;;;;;;;;;;;1740764;81;20219;-73
2023/02/28 03:12:13;;;;;;;;;;;;;;;;;;1790774;78;20223;-72
2023/02/28 03:14:43;;;;;;;;;;;;;;;;;;1810809;78;20195;-72
2023/02/28 03:22:43;;;;;;;;;;;;;;;;;;1727331;81;20228;-74
2023/02/28 03:25:13;;;;;;;;;;;;;;;;;;1758375;80;20288;-74
2023/02/28 03:27:43;;;;;;;;;;;;;;;;;;1751935;81;20214;-73
2023/02/28 03:30:12;;;;;;;;;;;;;;;;;;1762645;81;20326;-74
2023/02/28 03:32:42;;;;;;;;;;;;;;;;;;1738904;81;20229;-73
2023/02/28 03:35:11;;;;;;;;;;;;;;;;;;1757285;81;20199;-72
2023/02/28 03:37:40;;;;;;;;;;;;;;;;;;1763607;80;20538;-72
2023/02/28 03:40:12;;;;;;;;;;;;;;;;;;1790474;80;20542;-74
2023/02/28 03:42:40;;;;;;;;;;;;;;;;;;1727021;82;20551;-73
2023/02/28 03:45:12;;;;;;;;;;;;;;;;;;1747794;81;20462;-74
2023/02/28 03:47:43;;;;;;;;;;;;;;;;;;1734543;82;20185;-74
2023/02/28 03:50:12;;;;;;;;;;;;;;;;;;1758589;81;20524;-74
2023/02/28 03:52:41;;;;;;;;;;;;;;;;;;1764838;80;20517;-74
2023/02/28 03:55:11;;;;;;;;;;;;;;;;;;1730266;82;20184;-73
2023/02/28 03:57:40;;;;;;;;;;;;;;;;;;1768299;80;20604;-73
2023/02/28 04:00:09;;;;;;;;;;;;;;;;;;1724730;82;20438;-74
2023/02/28 04:02:39;;;;;;;;;;;;;;;;;;1734483;82;20549;-73
2023/02/28 04:05:08;;;;;;;;;;;;;;;;;;1740934;81;20540;-73
2023/02/28 04:07:37;;;;;;;;;;;;;;;;;;1722911;81;20546;-72
2023/02/28 04:10:06;;;;;;;;;;;;;;;;;;1759780;81;20262;-73
2023/02/28 04:12:36;;;;;;;;;;;;;;;;;;1778093;80;20636;-73
2023/02/28 04:20:48;;;;;;;;;;;;;;;;;;1793121;78;20471;-72
2023/02/28 04:23:17;;;;;;;;;;;;;;;;;;1804885;78;20616;-72
2023/02/28 04:25:47;;;;;;;;;;;;;;;;;;1811843;79;20237;-72
2023/02/28 04:28:18;;;;;;;;;;;;;;;;;;1810020;79;20181;-72
2023/02/28 04:30:47;;;;;;;;;;;;;;;;;;1809747;78;20214;-72
2023/02/28 04:33:17;;;;;;;;;;;;;;;;;;1806535;78;20192;-72
2023/02/28 04:35:46;;;;;;;;;;;;;;;;;;1806347;78;20438;-71
2023/02/28 04:38:15;;;;;;;;;;;;;;;;;;1785580;79;20452;-72
2023/02/28 04:40:45;;;;;;;;;;;;;;;;;;1794210;80;20219;-71
2023/02/28 04:43:23;;;;;;;;;;;;;;;;;;1772214;80;20461;-73
2023/02/28 04:45:52;;;;;;;;;;;;;;;;;;1787439;80;20178;-71
2023/02/28 04:48:21;;;;;;;;;;;;;;;;;;1782177;79;20195;-71
2023/02/28 04:50:51;;;;;;;;;;;;;;;;;;1799669;78;20281;-73
2023/02/28 04:53:20;;;;;;;;;;;;;;;;;;1795969;79;20681;-72
2023/02/28 04:55:49;;;;;;;;;;;;;;;;;;1790040;78;20698;-72
2023/02/28 04:58:19;;;;;;;;;;;;;;;;;;1782338;79;20176;-72
2023/02/28 05:00:48;;;;;;;;;;;;;;;;;;1786712;79;20178;-72
2023/02/28 05:03:17;;;;;;;;;;;;;;;;;;1796209;78;20558;-72
2023/02/28 05:05:47;;;;;;;;;;;;;;;;;;1754531;80;20326;-71
2023/02/28 05:08:16;;;;;;;;;;;;;;;;;;1755781;80;20370;-71
2023/02/28 05:10:45;;;;;;;;;;;;;;;;;;1785695;80;20186;-74
2023/02/28 05:13:14;;;;;;;;;;;;;;;;;;1784098;79;20311;-73
2023/02/28 05:15:48;;;;;;;;;;;;;;;;;;1751392;82;20169;-72
2023/02/28 05:18:14;;;;;;;;;;;;;;;;;;1757514;80;20605;-73
2023/02/28 05:20:43;;;;;;;;;;;;;;;;;;1800148;78;20631;-74
2023/02/28 05:23:12;;;;;;;;;;;;;;;;;;1800036;79;20223;-73
2023/02/28 05:25:42;;;;;;;;;;;;;;;;;;1791004;79;20354;-73
2023/02/28 05:28:11;;;;;;;;;;;;;;;;;;1792225;79;20492;-71
2023/02/28 05:30:40;;;;;;;;;;;;;;;;;;1800568;79;20459;-71
2023/02/28 05:33:10;;;;;;;;;;;;;;;;;;1756643;80;20179;-72
2023/02/28 05:35:39;;;;;;;;;;;;;;;;;;1764191;80;20243;-73
2023/02/28 05:38:08;;;;;;;;;;;;;;;;;;1780566;80;20539;-72
2023/02/28 05:40:38;;;;;;;;;;;;;;;;;;1749510;80;20503;-71
2023/02/28 05:43:07;;;;;;;;;;;;;;;;;;1797307;78;20523;-73
2023/02/28 05:45:37;;;;;;;;;;;;;;;;;;1795095;78;20582;-73
2023/02/28 05:48:06;;;;;;;;;;;;;;;;;;1800173;78;20226;-74
2023/02/28 05:50:35;;;;;;;;;;;;;;;;;;1793819;79;20472;-73
2023/02/28 05:53:04;;;;;;;;;;;;;;;;;;1790236;79;20224;-71
2023/02/28 05:55:35;;;;;;;;;;;;;;;;;;1797096;78;20185;-74
2023/02/28 05:58:04;;;;;;;;;;;;;;;;;;1795033;78;20243;-75
2023/02/28 06:00:34;;;;;;;;;;;;;;;;;;1792864;79;20461;-71
2023/02/28 06:03:04;;;;;;;;;;;;;;;;;;1801169;78;21179;-72
2023/02/28 06:05:33;;;;;;;;;;;;;;;;;;1794787;78;20200;-74
2023/02/28 06:08:04;;;;;;;;;;;;;;;;;;1796343;78;20244;-73
2023/02/28 06:10:33;;;;;;;;;;;;;;;;;;1801876;78;20227;-71
2023/02/28 06:13:02;;;;;;;;;;;;;;;;;;1799149;78;20530;-72
2023/02/28 06:15:32;;;;;;;;;;;;;;;;;;1799965;78;20194;-72
2023/02/28 06:18:02;;;;;;;;;;;;;;;;;;1789003;79;20237;-73
2023/02/28 06:20:31;;;;;;;;;;;;;;;;;;1805732;79;20209;-72
2023/02/28 06:23:00;;;;;;;;;;;;;;;;;;1793603;79;20183;-74
2023/02/28 06:25:30;;;;;;;;;;;;;;;;;;1783516;79;20212;-73
2023/02/28 06:28:00;;;;;;;;;;;;;;;;;;1793970;79;20169;-73
2023/02/28 06:30:33;;;;;;;;;;;;;;;;;;1807372;79;20512;-71
2023/02/28 06:33:07;;;;;;;;;;;;;;;;;;1790441;79;20709;-73
2023/02/28 06:35:33;;;;;;;;;;;;;;;;;;1793691;79;20740;-73
2023/02/28 06:38:03;;;;;;;;;;;;;;;;;;1796802;79;20212;-73
2023/02/28 06:40:34;;;;;;;;;;;;;;;;;;1794309;79;20233;-73
2023/02/28 06:43:04;;;;;;;;;;;;;;;;;;1793160;79;20191;-74
2023/02/28 06:45:33;;;;;;;;;;;;;;;;;;1793176;79;20230;-73
2023/02/28 06:48:03;;;;;;;;;;;;;;;;;;1789268;79;20550;-73
2023/02/28 06:50:32;;;;;;;;;;;;;;;;;;1797322;79;20532;-73
2023/02/28 06:53:02;;;;;;;;;;;;;;;;;;1788832;79;20559;-75
2023/02/28 06:55:32;;;;;;;;;;;;;;;;;;1797879;79;20219;-72
2023/02/28 06:58:14;;;;;;;;;;;;;;;;;;1785191;79;20162;-73
2023/02/28 07:00:35;;;;;;;;;;;;;;;;;;1783296;79;20660;-72
2023/02/28 07:03:04;;;;;;;;;;;;;;;;;;1756435;80;20264;-71
2023/02/28 07:05:33;;;;;;;;;;;;;;;;;;1788015;79;20191;-73
2023/02/28 07:08:03;;;;;;;;;;;;;;;;;;1789654;79;20334;-73
2023/02/28 07:10:32;;;;;;;;;;;;;;;;;;1787044;79;20610;-72
2023/02/28 07:13:02;;;;;;;;;;;;;;;;;;1796692;79;20628;-73
2023/02/28 07:15:31;;;;;;;;;;;;;;;;;;1807161;78;20228;-73
2023/02/28 07:18:03;;;;;;;;;;;;;;;;;;1813737;78;20209;-73
2023/02/28 07:20:33;;;;;;;;;;;;;;;;;;1798716;77;20173;-72
2023/02/28 07:23:03;;;;;;;;;;;;;;;;;;1806734;78;20263;-72
2023/02/28 07:25:32;;;;;;;;;;;;;;;;;;1784225;78;20217;-72
2023/02/28 07:28:04;;;;;;;;;;;;;;;;;;1772196;80;20520;-74
2023/02/28 07:30:34;;;;;;;;;;;;;;;;;;1803961;78;20613;-74
2023/02/28 07:33:04;;;;;;;;;;;;;;;;;;1798095;78;20245;-73
2023/02/28 07:35:33;;;;;;;;;;;;;;;;;;1804555;78;21071;-73
2023/02/28 07:38:03;;;;;;;;;;;;;;;;;;1782409;78;20215;-73
2023/02/28 07:40:32;;;;;;;;;;;;;;;;;;1808518;78;20226;-73
2023/02/28 07:43:01;;;;;;;;;;;;;;;;;;1784596;79;20347;-73
2023/02/28 07:45:34;;;;;;;;;;;;;;;;;;1796716;78;20180;-72
2023/02/28 07:48:01;;;;;;;;;;;;;;;;;;1781585;78;20267;-72
2023/02/28 07:50:34;;;;;;;;;;;;;;;;;;1808257;78;20245;-72
2023/02/28 07:53:04;;;;;;;;;;;;;;;;;;1787750;78;20569;-73
2023/02/28 07:55:33;;;;;;;;;;;;;;;;;;1767366;80;20483;-73
2023/02/28 07:58:02;;;;;;;;;;;;;;;;;;1806236;78;20591;-73
2023/02/28 08:00:32;;;;;;;;;;;;;;;;;;1782634;78;20197;-72
2023/02/28 08:03:05;;;;;;;;;;;;;;;;;;1784330;79;20217;-73
2023/02/28 08:05:34;;;;;;;;;;;;;;;;;;1813416;78;20197;-73
2023/02/28 08:08:05;;;;;;;;;;;;;;;;;;1811705;78;20183;-72
2023/02/28 08:10:35;;;;;;;;;;;;;;;;;;1777353;78;20197;-72
2023/02/28 08:13:04;;;;;;;;;;;;;;;;;;1790870;79;20186;-72
2023/02/28 08:15:34;;;;;;;;;;;;;;;;;;1748681;80;20225;-72
2023/02/28 08:18:03;;;;;;;;;;;;;;;;;;1724861;82;20389;-72
2023/02/28 08:20:33;;;;;;;;;;;;;;;;;;1727844;81;20228;-72
2023/02/28 08:23:02;;;;;;;;;;;;;;;;;;1750226;80;20415;-72
2023/02/28 08:25:32;;;;;;;;;;;;;;;;;;1751768;81;20440;-72
2023/02/28 08:28:01;;;;;;;;;;;;;;;;;;1739444;81;20260;-73
2023/02/28 08:30:30;;;;;;;;;;;;;;;;;;1726834;81;20255;-71
2023/02/28 08:32:59;;;;;;;;;;;;;;;;;;1727506;82;20584;-72
2023/02/28 08:35:29;;;;;;;;;;;;;;;;;;1769391;80;20263;-73
2023/02/28 08:37:58;;;;;;;;;;;;;;;;;;1779997;80;20259;-73
2023/02/28 08:40:28;;;;;;;;;;;;;;;;;;1751483;80;20171;-73
2023/02/28 08:42:58;;;;;;;;;;;;;;;;;;1763669;81;20470;-72
2023/02/28 08:45:27;;;;;;;;;;;;;;;;;;1759863;80;20212;-72
2023/02/28 08:47:57;;;;;;;;;;;;;;;;;;1745976;81;20197;-73
2023/02/28 08:50:26;;;;;;;;;;;;;;;;;;1756229;80;20558;-73
2023/02/28 08:52:55;;;;;;;;;;;;;;;;;;1750267;81;20645;-72
2023/02/28 08:55:24;;;;;;;;;;;;;;;;;;1738341;82;20246;-72
2023/02/28 08:57:54;;;;;;;;;;;;;;;;;;1757886;80;20532;-72
2023/02/28 09:00:23;;;;;;;;;;;;;;;;;;1754693;80;20555;-72
2023/02/28 09:02:54;;;;;;;;;;;;;;;;;;1721947;82;20207;-73
2023/02/28 09:05:23;;;;;;;;;;;;;;;;;;1736506;82;20220;-72
2023/02/28 09:07:52;;;;;;;;;;;;;;;;;;1717596;81;20499;-73
2023/02/28 09:10:22;;;;;;;;;;;;;;;;;;1729184;82;20593;-72
2023/02/28 09:12:52;;;;;;;;;;;;;;;;;;1751067;81;20560;-72
2023/02/28 09:15:27;;;;;;;;;;;;;;;;;;1738030;80;20637;-72
2023/02/28 09:17:56;;;;;;;;;;;;;;;;;;1736974;80;20547;-72
2023/02/28 09:20:25;;;;;;;;;;;;;;;;;;1753917;80;20664;-73
2023/02/28 09:22:54;;;;;;;;;;;;;;;;;;1784775;80;20701;-74
2023/02/28 09:25:23;;;;;;;;;;;;;;;;;;1759583;80;20457;-73
2023/02/28 09:27:53;;;;;;;;;;;;;;;;;;1785922;80;20455;-73
2023/02/28 09:30:22;;;;;;;;;;;;;;;;;;1759636;80;20175;-73
2023/02/28 09:32:51;;;;;;;;;;;;;;;;;;1736138;81;20612;-73
2023/02/28 09:35:20;;;;;;;;;;;;;;;;;;1767906;80;20670;-74
2023/02/28 09:37:50;;;;;;;;;;;;;;;;;;1783904;80;20518;-73
2023/02/28 09:40:19;;;;;;;;;;;;;;;;;;1750747;81;20559;-73
2023/02/28 09:42:48;;;;;;;;;;;;;;;;;;1756318;81;20507;-72
2023/02/28 09:45:17;;;;;;;;;;;;;;;;;;1746657;81;20479;-73
2023/02/28 09:47:46;;;;;;;;;;;;;;;;;;1759693;81;20734;-73
2023/02/28 09:50:15;;;;;;;;;;;;;;;;;;1761440;80;20473;-73
2023/02/28 09:52:44;;;;;;;;;;;;;;;;;;1758027;80;20598;-73
2023/02/28 09:55:13;;;;;;;;;;;;;;;;;;1755786;81;20505;-73
2023/02/28 09:57:43;;;;;;;;;;;;;;;;;;1753554;81;20194;-73
2023/02/28 10:00:12;;;;;;;;;;;;;;;;;;1757539;81;20587;-73
2023/02/28 10:02:41;;;;;;;;;;;;;;;;;;1760360;80;20566;-73
2023/02/28 10:05:11;;;;;;;;;;;;;;;;;;1751253;82;20539;-73
2023/02/28 10:07:40;;;;;;;;;;;;;;;;;;1747825;81;20608;-72
2023/02/28 10:10:09;;;;;;;;;;;;;;;;;;1754588;81;20534;-73
2023/02/28 10:12:39;;;;;;;;;;;;;;;;;;1755298;80;20317;-72
2023/02/28 10:15:08;;;;;;;;;;;;;;;;;;1788783;79;20326;-72
2023/02/28 10:17:40;;;;;;;;;;;;;;;;;;1795101;78;20576;-74
2023/02/28 10:20:13;;;;;;;;;;;;;;;;;;1808032;77;20178;-73
2023/02/28 10:22:41;;;;;;;;;;;;;;;;;;1824298;78;20198;-71
2023/02/28 10:25:11;;;;;;;;;;;;;;;;;;1795995;78;20174;-72
2023/02/28 10:27:40;;;;;;;;;;;;;;;;;;1850411;77;20673;-73
2023/02/28 10:30:15;;;;;;;;;;;;;;;;;;1849185;76;20213;-73
2023/02/28 10:32:40;;;;;;;;;;;;;;;;;;1848685;77;20529;-73
2023/02/28 10:35:10;;;;;;;;;;;;;;;;;;1840340;77;20189;-73
2023/02/28 10:37:41;;;;;;;;;;;;;;;;;;1828717;78;20282;-73
2023/02/28 10:40:10;;;;;;;;;;;;;;;;;;1833745;77;20584;-72
2023/02/28 10:42:39;;;;;;;;;;;;;;;;;;1814098;78;20172;-73
2023/02/28 10:45:08;;;;;;;;;;;;;;;;;;1836736;78;20188;-74
2023/02/28 10:47:38;;;;;;;;;;;;;;;;;;1837429;77;20581;-73
2023/02/28 10:50:07;;;;;;;;;;;;;;;;;;1838346;78;20119;-73
2023/02/28 10:52:37;;;;;;;;;;;;;;;;;;1834660;78;20302;-74
2023/02/28 10:55:07;;;;;;;;;;;;;;;;;;1807418;78;20240;-72
2023/02/28 10:57:39;;;;;;;;;;;;;;;;;;1823490;78;20192;-74
2023/02/28 11:00:09;;;;;;;;;;;;;;;;;;1831101;78;20686;-73
2023/02/28 11:02:40;;;;;;;;;;;;;;;;;;1818310;78;20497;-74
2023/02/28 11:05:09;;;;;;;;;;;;;;;;;;1830931;77;20443;-74
2023/02/28 11:07:39;;;;;;;;;;;;;;;;;;1834348;78;20303;-73
2023/02/28 11:10:10;;;;;;;;;;;;;;;;;;1819123;76;20220;-88
2023/02/28 11:12:57;;;;;;;;;;;;;;;;;;1827735;78;20158;-84
2023/02/28 11:15:29;;;;;;;;;;;;;;;;;;1841340;77;20204;-84
2023/02/28 11:18:16;;;;;;;;;;;;;;;;;;1845645;77;20157;-86
2023/02/28 11:21:04;;;;;;;;;;;;;;;;;;1834218;76;20217;-85
2023/02/28 11:23:34;;;;;;;;;;;;;;;;;;1803750;78;20412;-85
2023/02/28 11:26:05;;;;;;;;;;;;;;;;;;1855831;77;20152;-85
2023/02/28 11:28:34;;;;;;;;;;;;;;;;;;1809723;77;20212;-85
2023/02/28 11:31:03;;;;;;;;;;;;;;;;;;1806399;78;20198;-85
2023/02/28 11:33:33;;;;;;;;;;;;;;;;;;1806156;78;20301;-84
2023/02/28 11:36:06;;;;;;;;;;;;;;;;;;1773916;79;20207;-85
2023/02/28 11:38:33;;;;;;;;;;;;;;;;;;1803665;79;20231;-85
2023/02/28 11:41:02;;;;;;;;;;;;;;;;;;1798417;79;20291;-86
2023/02/28 11:43:31;;;;;;;;;;;;;;;;;;1808335;78;20292;-85
2023/02/28 11:46:00;;;;;;;;;;;;;;;;;;1814329;78;20477;-86
2023/02/28 11:48:29;;;;;;;;;;;;;;;;;;1812218;79;20157;-86
2023/02/28 11:50:58;;;;;;;;;;;;;;;;;;1807296;78;20280;-86
2023/02/28 11:53:27;;;;;;;;;;;;;;;;;;1807536;78;20245;-84
2023/02/28 11:55:56;;;;;;;;;;;;;;;;;;1810648;78;20710;-85
2023/02/28 11:58:25;;;;;;;;;;;;;;;;;;1811936;78;20225;-86
2023/02/28 12:00:54;;;;;;;;;;;;;;;;;;1812984;78;20478;-86
2023/02/28 12:03:23;;;;;;;;;;;;;;;;;;1808715;78;20443;-84
2023/02/28 12:05:52;;;;;;;;;;;;;;;;;;1807685;78;20218;-86
2023/02/28 12:08:22;;;;;;;;;;;;;;;;;;1821894;78;20384;-86
2023/02/28 12:10:51;;;;;;;;;;;;;;;;;;1789182;79;20190;-86
2023/02/28 12:13:20;;;;;;;;;;;;;;;;;;1803865;78;20191;-86
2023/02/28 12:15:49;;;;;;;;;;;;;;;;;;1807861;79;20518;-85
2023/02/28 12:18:18;;;;;;;;;;;;;;;;;;1797521;80;20235;-85
2023/02/28 12:20:47;;;;;;;;;;;;;;;;;;1802119;78;20680;-85
2023/02/28 12:23:16;;;;;;;;;;;;;;;;;;1795390;78;20219;-86
2023/02/28 12:25:46;;;;;;;;;;;;;;;;;;1863952;76;20267;-86
2023/02/28 12:28:15;;;;;;;;;;;;;;;;;;1868840;76;20243;-85
2023/02/28 12:30:48;;;;;;;;;;;;;;;;;;1853051;76;20211;-87
2023/02/28 12:33:17;;;;;;;;;;;;;;;;;;1852894;76;20188;-86
2023/02/28 12:36:30;;;;;;;;;;;;;;;;;;1866085;75;20261;-85
2023/02/28 12:39:07;;;;;;;;;;;;;;;;;;1851498;76;20793;-87
2023/02/28 12:42:20;;;;;;;;;;;;;;;;;;;;;
2023/02/28 12:53:02;;;;;;;;;;;;;;;;;;;;;
2023/02/28 12:58:48;;;;;;;;;;;;;;;;;;1580560;90;20211;-87
2023/02/28 13:20:32;;;;;;;;;;;;;;;;;;1834617;76;20187;-90
2023/02/28 13:29:31;;;;;;;;;;;;;;;;;;;;;
2023/02/28 13:32:24;;;;;;;;;;;;;;;;;;;;;
2023/02/28 13:35:25;;;;;;;;;;;;;;;;;;1765506;79;20249;-91
2023/02/28 13:40:46;;;;;;;;;;;;;;;;;;1760115;79;20156;-93
2023/02/28 13:43:35;;;;;;;;;;;;;;;;;;;;;
2023/02/28 13:52:01;;;;;;;;;;;;;;;;;;1513738;95;20283;-91
2023/02/28 13:54:31;;;;;;;;;;;;;;;;;;1546617;92;20414;-89
2023/02/28 13:57:00;;;;;;;;;;;;;;;;;;1557234;91;20188;-90
2023/02/28 13:59:32;;;;;;;;;;;;;;;;;;1606069;88;20210;-91
2023/02/28 14:02:00;;;;;;;;;;;;;;;;;;1633559;88;20295;-91
2023/02/28 14:04:29;;;;;;;;;;;;;;;;;;1642338;86;20227;-89
2023/02/28 14:07:02;;;;;;;;;;;;;;;;;;1652301;87;20493;-89
2023/02/28 14:12:27;;;;;;;;;;;;;;;;;;1638382;87;20161;-91
2023/02/28 14:14:58;;;;;;;;;;;;;;;;;;1652565;87;20195;-89
2023/02/28 14:17:27;;;;;;;;;;;;;;;;;;1739807;80;20227;-91
2023/02/28 14:19:56;;;;;;;;;;;;;;;;;;1796175;79;20235;-91
2023/02/28 14:22:26;;;;;;;;;;;;;;;;;;1773043;80;20222;-91
2023/02/28 14:24:57;;;;;;;;;;;;;;;;;;1791296;80;20136;-92
2023/02/28 14:27:26;;;;;;;;;;;;;;;;;;1777825;80;20181;-91
2023/02/28 14:29:58;;;;;;;;;;;;;;;;;;1772437;80;20126;-89
2023/02/28 14:32:29;;;;;;;;;;;;;;;;;;1792278;80;20165;-88
2023/02/28 14:34:57;;;;;;;;;;;;;;;;;;1800010;80;20128;-91
2023/02/28 14:37:27;;;;;;;;;;;;;;;;;;1795424;80;20206;-91
2023/02/28 14:39:56;;;;;;;;;;;;;;;;;;1793998;80;20181;-91
2023/02/28 14:42:25;;;;;;;;;;;;;;;;;;1776036;80;20197;-91
2023/02/28 14:44:59;;;;;;;;;;;;;;;;;;1788631;80;20121;-91
2023/02/28 14:47:25;;;;;;;;;;;;;;;;;;1798308;80;20124;-91
2023/02/28 14:49:55;;;;;;;;;;;;;;;;;;1780424;80;20200;-92
2023/02/28 14:52:24;;;;;;;;;;;;;;;;;;1773759;79;20215;-91
2023/02/28 14:54:53;;;;;;;;;;;;;;;;;;1767365;80;20201;-90
2023/02/28 14:57:22;;;;;;;;;;;;;;;;;;1775431;80;20335;-91
2023/02/28 14:59:52;;;;;;;;;;;;;;;;;;1788304;80;20212;-91
2023/02/28 15:02:21;;;;;;;;;;;;;;;;;;1778079;80;20207;-91
2023/02/28 15:04:50;;;;;;;;;;;;;;;;;;1773922;80;20526;-91
2023/02/28 15:07:20;;;;;;;;;;;;;;;;;;1795270;80;20152;-89
2023/02/28 15:09:49;;;;;;;;;;;;;;;;;;1794588;80;20129;-89
2023/02/28 15:12:18;;;;;;;;;;;;;;;;;;1790945;80;20191;-89
2023/02/28 15:14:47;;;;;;;;;;;;;;;;;;1778342;80;20266;-91
2023/02/28 15:17:18;;;;;;;;;;;;;;;;;;1778776;79;20193;-90
2023/02/28 15:19:47;;;;;;;;;;;;;;;;;;1792862;78;20507;-89
2023/02/28 15:22:16;;;;;;;;;;;;;;;;;;1822183;78;20174;-92
2023/02/28 15:24:46;;;;;;;;;;;;;;;;;;1801903;80;20162;-92
2023/02/28 15:27:15;;;;;;;;;;;;;;;;;;1825910;78;20232;-91
2023/02/28 15:29:44;;;;;;;;;;;;;;;;;;1824198;78;20172;-90
2023/02/28 15:32:13;;;;;;;;;;;;;;;;;;1810941;78;20250;-90
2023/02/28 15:34:44;;;;;;;;;;;;;;;;;;1808366;78;20210;-91
2023/02/28 15:37:13;;;;;;;;;;;;;;;;;;1824570;78;20176;-92
2023/02/28 15:39:42;;;;;;;;;;;;;;;;;;1824766;78;20179;-91
2023/02/28 15:42:12;;;;;;;;;;;;;;;;;;1802782;80;20410;-91
2023/02/28 15:44:41;;;;;;;;;;;;;;;;;;1813544;78;20547;-91
2023/02/28 15:47:13;;;;;;;;;;;;;;;;;;1819171;78;20206;-91
2023/02/28 15:49:42;;;;;;;;;;;;;;;;;;1810272;78;20147;-90
2023/02/28 15:52:12;;;;;;;;;;;;;;;;;;1831748;78;20415;-90
2023/02/28 15:54:42;;;;;;;;;;;;;;;;;;1807513;78;20210;-89
2023/02/28 15:57:11;;;;;;;;;;;;;;;;;;1820661;78;20270;-89
2023/02/28 15:59:41;;;;;;;;;;;;;;;;;;1820866;78;20478;-91
2023/02/28 16:02:12;;;;;;;;;;;;;;;;;;1812617;78;20595;-90
2023/02/28 16:04:42;;;;;;;;;;;;;;;;;;1807683;78;20220;-90
2023/02/28 16:10:02;;;;;;;;;;;;;;;;;;1811312;77;20351;-91
2023/02/28 16:12:32;;;;;;;;;;;;;;;;;;1806671;78;20135;-90
2023/02/28 16:15:02;;;;;;;;;;;;;;;;;;1820792;78;20187;-90
2023/02/28 16:17:46;;;;;;;;;;;;;;;;;;1823543;78;20388;-89
2023/02/28 16:23:32;;;;;;;;;;;;;;;;;;1723705;83;20309;-90
2023/02/28 16:26:02;;;;;;;;;;;;;;;;;;1713464;83;20248;-88
2023/02/28 16:28:32;;;;;;;;;;;;;;;;;;1675610;84;20255;-90
2023/02/28 16:31:02;;;;;;;;;;;;;;;;;;1704468;83;20642;-91
2023/02/28 16:33:32;;;;;;;;;;;;;;;;;;1687404;84;20216;-91
2023/02/28 16:36:14;;;;;;;;;;;;;;;;;;;;;
2023/02/28 16:38:53;;;;;;;;;;;;;;;;;;1687586;84;20236;-90
2023/02/28 16:41:22;;;;;;;;;;;;;;;;;;1703635;84;20235;-89
2023/02/28 16:43:51;;;;;;;;;;;;;;;;;;1726045;83;20211;-90
2023/02/28 16:46:20;;;;;;;;;;;;;;;;;;1708267;83;20278;-90
2023/02/28 16:48:52;;;;;;;;;;;;;;;;;;1689540;84;20221;-89
2023/02/28 16:51:22;;;;;;;;;;;;;;;;;;1694913;84;20225;-90
2023/02/28 16:53:51;;;;;;;;;;;;;;;;;;1693707;84;20191;-91
2023/02/28 16:56:20;;;;;;;;;;;;;;;;;;1690236;84;20284;-90
2023/02/28 16:58:49;;;;;;;;;;;;;;;;;;1722975;80;20578;-89
2023/02/28 17:01:23;;;;;;;;;;;;;;;;;;1805377;79;20172;-92
2023/02/28 17:04:01;;;;;;;;;;;;;;;;;;;;;
2023/02/28 17:06:27;;;;;;;;;;;;;;;;;;1804377;79;20131;-89
2023/02/28 17:09:09;;;;;;;;;;;;;;;;;;1794613;79;20135;-90
2023/02/28 17:11:40;;;;;;;;;;;;;;;;;;1799639;79;20285;-90
2023/02/28 17:14:27;;;;;;;;;;;;;;;;;;;;;
2023/02/28 17:19:35;;;;;;;;;;;;;;;;;;1799337;79;20131;-91
2023/02/28 17:22:23;;;;;;;;;;;;;;;;;;1769010;80;20229;-91
2023/02/28 17:24:55;;;;;;;;;;;;;;;;;;1803030;79;20261;-89
2023/02/28 17:27:44;;;;;;;;;;;;;;;;;;1690853;85;20200;-90
2023/02/28 17:30:13;;;;;;;;;;;;;;;;;;1768678;79;20243;-90
2023/02/28 17:35:57;;;;;;;;;;;;;;;;;;1783548;81;20402;-89
2023/02/28 17:41:16;;;;;;;;;;;;;;;;;;1754386;81;20137;-92
2023/02/28 17:43:48;;;;;;;;;;;;;;;;;;1769086;81;20188;-90
2023/02/28 17:46:18;;;;;;;;;;;;;;;;;;1756262;81;20149;-91
2023/02/28 17:48:47;;;;;;;;;;;;;;;;;;1761734;81;20273;-90
2023/02/28 17:51:16;;;;;;;;;;;;;;;;;;1772358;81;20188;-90
2023/02/28 17:53:49;;;;;;;;;;;;;;;;;;1741048;81;20155;-90
2023/02/28 17:56:52;;;;;;;;;;;;;;;;;;1783261;81;20124;-91
2023/02/28 18:02:42;;;;;;;;;;;;;;;;;;1784490;80;20171;-92
2023/02/28 18:10:42;;;;;;;;;;;;;;;;;;1645603;85;20462;-88
2023/02/28 18:13:12;;;;;;;;;;;;;;;;;;1746149;82;20211;-91
2023/02/28 18:15:41;;;;;;;;;;;;;;;;;;1753110;81;20212;-90
2023/02/28 18:18:30;;;;;;;;;;;;;;;;;;1756409;82;20134;-90
2023/02/28 18:21:07;;;;;;;;;;;;;;;;;;1765419;80;20243;-91
2023/02/28 18:23:37;;;;;;;;;;;;;;;;;;1767306;81;20480;-90
2023/02/28 18:26:09;;;;;;;;;;;;;;;;;;1752522;80;20200;-90
2023/02/28 18:28:36;;;;;;;;;;;;;;;;;;1750536;82;20201;-90
2023/02/28 18:31:07;;;;;;;;;;;;;;;;;;1759320;82;20135;-89
2023/02/28 18:33:36;;;;;;;;;;;;;;;;;;1753954;82;20224;-91